createdAt,value
2017-04-09T00:00:21.975Z,0
2017-04-09T00:01:02.484Z,0
2017-04-09T00:01:42.961Z,0
2017-04-09T00:02:23.475Z,0
2017-04-09T00:03:03.972Z,0
2017-04-09T00:03:44.544Z,0
2017-04-09T00:04:24.997Z,0
2017-04-09T00:05:05.500Z,0
2017-04-09T00:05:46.016Z,0
2017-04-09T00:06:26.508Z,0
2017-04-09T00:07:07.030Z,0
2017-04-09T00:07:49.086Z,0
2017-04-09T00:08:28.034Z,0
2017-04-09T00:09:08.562Z,0
2017-04-09T00:09:49.059Z,0
2017-04-09T00:10:29.578Z,0
2017-04-09T00:11:10.081Z,0
2017-04-09T00:11:50.583Z,0
2017-04-09T00:12:31.106Z,0
2017-04-09T00:13:11.609Z,0
2017-04-09T00:13:52.137Z,0
2017-04-09T00:14:32.652Z,0
2017-04-09T00:15:13.152Z,0
2017-04-09T00:15:53.650Z,0
2017-04-09T00:16:34.160Z,0
2017-04-09T00:17:14.650Z,0
2017-04-09T00:17:55.161Z,0
2017-04-09T00:18:35.676Z,0
2017-04-09T00:19:16.147Z,0
2017-04-09T00:19:56.679Z,0
2017-04-09T00:20:37.201Z,0
2017-04-09T00:21:17.748Z,0
2017-04-09T00:21:58.280Z,0
2017-04-09T00:22:38.813Z,0
2017-04-09T00:23:19.290Z,0
2017-04-09T00:23:59.780Z,0
2017-04-09T00:24:40.307Z,0
2017-04-09T00:25:20.820Z,0
2017-04-09T00:26:01.334Z,0
2017-04-09T00:26:41.834Z,0
2017-04-09T00:27:22.363Z,0
2017-04-09T00:28:02.900Z,0
2017-04-09T00:28:43.421Z,0
2017-04-09T00:29:23.905Z,0
2017-04-09T00:30:04.424Z,0
2017-04-09T00:30:44.899Z,0
2017-04-09T00:31:25.389Z,0
2017-04-09T00:32:05.886Z,0
2017-04-09T00:32:46.419Z,0
2017-04-09T00:33:26.909Z,0
2017-04-09T00:34:07.415Z,0
2017-04-09T00:34:47.917Z,0
2017-04-09T00:35:28.425Z,0
2017-04-09T00:36:08.953Z,0
2017-04-09T00:36:49.440Z,0
2017-04-09T00:37:29.953Z,0
2017-04-09T00:38:10.480Z,0
2017-04-09T00:38:50.977Z,0
2017-04-09T00:39:31.503Z,0
2017-04-09T00:40:12.005Z,0
2017-04-09T00:40:52.496Z,0
2017-04-09T00:41:33.005Z,0
2017-04-09T00:42:13.517Z,0
2017-04-09T00:42:54.001Z,0
2017-04-09T00:43:34.474Z,0
2017-04-09T00:44:14.989Z,0
2017-04-09T00:44:55.431Z,0
2017-04-09T00:45:35.973Z,0
2017-04-09T00:46:16.587Z,0
2017-04-09T00:46:57.104Z,0
2017-04-09T00:47:37.623Z,0
2017-04-09T00:48:18.141Z,0
2017-04-09T00:48:58.641Z,0
2017-04-09T00:49:39.163Z,0
2017-04-09T00:50:19.690Z,0
2017-04-09T00:51:00.189Z,0
2017-04-09T00:51:40.686Z,0
2017-04-09T00:52:21.178Z,0
2017-04-09T00:53:01.706Z,0
2017-04-09T00:53:42.206Z,0
2017-04-09T00:54:22.713Z,0
2017-04-09T00:55:03.197Z,0
2017-04-09T00:55:43.709Z,0
2017-04-09T00:56:24.227Z,0
2017-04-09T00:57:04.733Z,0
2017-04-09T00:57:45.250Z,0
2017-04-09T00:58:25.724Z,0
2017-04-09T00:59:06.230Z,0
2017-04-09T00:59:46.736Z,0
2017-04-09T01:00:27.252Z,0
2017-04-09T01:01:07.732Z,0
2017-04-09T01:01:48.232Z,0
2017-04-09T01:02:28.726Z,0
2017-04-09T01:03:09.228Z,0
2017-04-09T01:03:49.821Z,0
2017-04-09T01:04:30.282Z,0
2017-04-09T01:05:10.785Z,0
2017-04-09T01:05:51.277Z,0
2017-04-09T01:06:31.793Z,0
2017-04-09T01:07:12.347Z,0
2017-04-09T01:07:52.845Z,0
2017-04-09T01:08:33.347Z,0
2017-04-09T01:09:13.874Z,0
2017-04-09T01:09:54.374Z,0
2017-04-09T01:10:34.886Z,0
2017-04-09T01:11:15.399Z,0
2017-04-09T01:11:55.893Z,0
2017-04-09T01:12:36.397Z,0
2017-04-09T01:13:16.901Z,0
2017-04-09T01:13:57.428Z,0
2017-04-09T01:14:37.945Z,0
2017-04-09T01:15:18.468Z,0
2017-04-09T01:15:58.986Z,0
2017-04-09T01:16:39.489Z,0
2017-04-09T01:17:20.002Z,0
2017-04-09T01:18:00.512Z,0
2017-04-09T01:18:41.012Z,0
2017-04-09T01:19:21.542Z,0
2017-04-09T01:20:02.064Z,0
2017-04-09T01:20:42.574Z,0
2017-04-09T01:21:23.113Z,0
2017-04-09T01:22:03.597Z,0
2017-04-09T01:22:44.092Z,0
2017-04-09T01:23:24.607Z,0
2017-04-09T01:24:05.091Z,0
2017-04-09T01:24:45.609Z,0
2017-04-09T01:25:26.125Z,0
2017-04-09T01:26:06.670Z,0
2017-04-09T01:26:47.148Z,0
2017-04-09T01:27:27.668Z,0
2017-04-09T01:28:08.196Z,0
2017-04-09T01:28:48.671Z,0
2017-04-09T01:29:29.229Z,0
2017-04-09T01:30:09.707Z,0
2017-04-09T01:30:50.235Z,0
2017-04-09T01:31:30.736Z,0
2017-04-09T01:32:11.227Z,0
2017-04-09T01:32:51.744Z,0
2017-04-09T01:33:32.231Z,0
2017-04-09T01:34:12.735Z,0
2017-04-09T01:34:53.233Z,0
2017-04-09T01:35:33.744Z,0
2017-04-09T01:36:14.293Z,0
2017-04-09T01:36:54.753Z,0
2017-04-09T01:37:35.251Z,0
2017-04-09T01:38:15.729Z,0
2017-04-09T01:38:56.231Z,0
2017-04-09T01:39:36.733Z,0
2017-04-09T01:40:17.237Z,0
2017-04-09T01:40:57.753Z,0
2017-04-09T01:41:38.231Z,0
2017-04-09T01:42:18.722Z,0
2017-04-09T01:42:59.271Z,0
2017-04-09T01:43:39.788Z,0
2017-04-09T01:44:20.243Z,0
2017-04-09T01:45:00.756Z,0
2017-04-09T01:45:41.317Z,0
2017-04-09T01:46:21.790Z,0
2017-04-09T01:47:02.242Z,0
2017-04-09T01:47:42.764Z,0
2017-04-09T01:48:23.256Z,0
2017-04-09T01:49:03.788Z,0
2017-04-09T01:49:44.254Z,0
2017-04-09T01:50:24.739Z,0
2017-04-09T01:51:05.275Z,0
2017-04-09T01:51:45.780Z,0
2017-04-09T01:52:26.270Z,0
2017-04-09T01:53:06.789Z,0
2017-04-09T01:53:47.305Z,0
2017-04-09T01:54:27.775Z,0
2017-04-09T01:55:08.276Z,0
2017-04-09T01:55:48.772Z,0
2017-04-09T01:56:29.284Z,0
2017-04-09T01:57:09.785Z,0
2017-04-09T01:57:50.308Z,0
2017-04-09T01:58:30.783Z,0
2017-04-09T01:59:11.297Z,0
2017-04-09T01:59:51.807Z,0
2017-04-09T02:00:32.321Z,0
2017-04-09T02:01:12.795Z,0
2017-04-09T02:01:53.312Z,0
2017-04-09T02:02:33.770Z,0
2017-04-09T02:03:14.261Z,0
2017-04-09T02:03:54.807Z,0
2017-04-09T02:04:35.282Z,0
2017-04-09T02:05:15.795Z,0
2017-04-09T02:05:56.295Z,0
2017-04-09T02:06:36.825Z,0
2017-04-09T02:07:17.317Z,0
2017-04-09T02:07:57.787Z,0
2017-04-09T02:08:38.277Z,0
2017-04-09T02:09:18.743Z,0
2017-04-09T02:09:59.215Z,0
2017-04-09T02:10:39.731Z,0
2017-04-09T02:11:20.235Z,0
2017-04-09T02:12:00.727Z,0
2017-04-09T02:12:41.244Z,0
2017-04-09T02:13:21.781Z,0
2017-04-09T02:14:02.272Z,0
2017-04-09T02:14:42.795Z,0
2017-04-09T02:15:23.279Z,0
2017-04-09T02:16:03.822Z,0
2017-04-09T02:16:44.333Z,0
2017-04-09T02:17:24.832Z,0
2017-04-09T02:18:05.312Z,0
2017-04-09T02:18:45.830Z,0
2017-04-09T02:19:26.361Z,0
2017-04-09T02:20:06.882Z,0
2017-04-09T02:20:47.382Z,0
2017-04-09T02:21:27.898Z,0
2017-04-09T02:22:08.415Z,0
2017-04-09T02:22:48.928Z,0
2017-04-09T02:23:29.449Z,0
2017-04-09T02:24:09.964Z,0
2017-04-09T02:24:50.467Z,0
2017-04-09T02:25:30.963Z,0
2017-04-09T02:26:11.490Z,0
2017-04-09T02:26:51.983Z,0
2017-04-09T02:27:32.491Z,0
2017-04-09T02:28:12.978Z,0
2017-04-09T02:28:53.513Z,0
2017-04-09T02:29:34.008Z,0
2017-04-09T02:30:14.512Z,0
2017-04-09T02:30:54.993Z,0
2017-04-09T02:31:35.503Z,0
2017-04-09T02:32:16.035Z,0
2017-04-09T02:32:56.574Z,0
2017-04-09T02:33:37.071Z,0
2017-04-09T02:34:17.606Z,0
2017-04-09T02:34:58.087Z,0
2017-04-09T02:35:38.574Z,0
2017-04-09T02:36:19.087Z,0
2017-04-09T02:36:59.604Z,0
2017-04-09T02:37:40.119Z,0
2017-04-09T02:38:20.592Z,0
2017-04-09T02:39:01.099Z,0
2017-04-09T02:39:41.595Z,0
2017-04-09T02:40:22.156Z,0
2017-04-09T02:41:02.674Z,0
2017-04-09T02:41:43.181Z,0
2017-04-09T02:42:23.694Z,0
2017-04-09T02:43:04.197Z,0
2017-04-09T02:43:44.709Z,0
2017-04-09T02:44:25.238Z,0
2017-04-09T02:45:05.700Z,0
2017-04-09T02:45:46.177Z,0
2017-04-09T02:46:26.681Z,0
2017-04-09T02:47:07.188Z,0
2017-04-09T02:47:47.700Z,0
2017-04-09T02:48:28.238Z,0
2017-04-09T02:49:08.709Z,0
2017-04-09T02:49:49.245Z,0
2017-04-09T02:50:29.770Z,0
2017-04-09T02:51:10.267Z,0
2017-04-09T02:51:50.783Z,0
2017-04-09T02:52:31.269Z,0
2017-04-09T02:53:11.754Z,0
2017-04-09T02:53:52.274Z,0
2017-04-09T02:54:32.771Z,0
2017-04-09T02:55:13.281Z,0
2017-04-09T02:55:53.797Z,0
2017-04-09T02:56:34.321Z,0
2017-04-09T02:57:14.821Z,0
2017-04-09T02:57:55.337Z,0
2017-04-09T02:58:35.820Z,0
2017-04-09T02:59:16.331Z,0
2017-04-09T02:59:56.872Z,0
2017-04-09T03:00:37.330Z,0
2017-04-09T03:01:17.862Z,0
2017-04-09T03:01:58.369Z,0
2017-04-09T03:02:38.867Z,0
2017-04-09T03:03:19.340Z,0
2017-04-09T03:03:59.832Z,0
2017-04-09T03:04:40.327Z,0
2017-04-09T03:05:20.832Z,0
2017-04-09T03:06:01.348Z,0
2017-04-09T03:06:41.845Z,0
2017-04-09T03:07:22.347Z,0
2017-04-09T03:08:02.853Z,0
2017-04-09T03:08:43.337Z,0
2017-04-09T03:09:23.852Z,0
2017-04-09T03:10:04.371Z,0
2017-04-09T03:10:44.831Z,0
2017-04-09T03:11:25.312Z,0
2017-04-09T03:12:05.808Z,0
2017-04-09T03:12:46.315Z,0
2017-04-09T03:13:26.821Z,0
2017-04-09T03:14:07.307Z,0
2017-04-09T03:14:47.804Z,0
2017-04-09T03:15:28.327Z,0
2017-04-09T03:16:08.808Z,0
2017-04-09T03:16:49.314Z,0
2017-04-09T03:17:29.792Z,0
2017-04-09T03:18:10.284Z,0
2017-04-09T03:18:50.814Z,0
2017-04-09T03:19:31.299Z,0
2017-04-09T03:20:11.768Z,0
2017-04-09T03:20:52.273Z,0
2017-04-09T03:21:32.786Z,0
2017-04-09T03:22:13.304Z,0
2017-04-09T03:22:53.821Z,0
2017-04-09T03:23:34.332Z,0
2017-04-09T03:24:14.845Z,0
2017-04-09T03:24:55.311Z,0
2017-04-09T03:25:35.837Z,0
2017-04-09T03:26:16.315Z,0
2017-04-09T03:26:56.833Z,0
2017-04-09T03:27:37.351Z,0
2017-04-09T03:28:17.864Z,0
2017-04-09T03:28:58.362Z,0
2017-04-09T03:29:38.878Z,0
2017-04-09T03:30:19.379Z,0
2017-04-09T03:30:59.897Z,0
2017-04-09T03:31:40.421Z,0
2017-04-09T03:32:20.961Z,0
2017-04-09T03:33:01.418Z,0
2017-04-09T03:33:41.960Z,0
2017-04-09T03:34:22.435Z,0
2017-04-09T03:35:02.925Z,0
2017-04-09T03:35:43.445Z,0
2017-04-09T03:36:23.954Z,0
2017-04-09T03:37:04.442Z,0
2017-04-09T03:37:45.000Z,0
2017-04-09T03:38:25.485Z,0
2017-04-09T03:39:05.993Z,0
2017-04-09T03:39:46.488Z,0
2017-04-09T03:40:26.986Z,0
2017-04-09T03:41:07.502Z,0
2017-04-09T03:41:47.974Z,0
2017-04-09T03:42:28.523Z,0
2017-04-09T03:43:08.994Z,0
2017-04-09T03:43:49.486Z,0
2017-04-09T03:44:29.997Z,0
2017-04-09T03:45:10.530Z,0
2017-04-09T03:45:51.003Z,0
2017-04-09T03:46:31.535Z,0
2017-04-09T03:47:12.036Z,0
2017-04-09T03:47:52.503Z,0
2017-04-09T03:48:33.027Z,0
2017-04-09T03:49:13.533Z,0
2017-04-09T03:49:54.045Z,0
2017-04-09T03:50:34.511Z,0
2017-04-09T03:51:15.060Z,0
2017-04-09T03:51:55.546Z,0
2017-04-09T03:52:36.049Z,0
2017-04-09T03:53:16.549Z,0
2017-04-09T03:53:57.062Z,0
2017-04-09T03:54:37.542Z,0
2017-04-09T03:55:18.036Z,0
2017-04-09T03:55:58.535Z,0
2017-04-09T03:56:39.059Z,0
2017-04-09T03:57:19.582Z,0
2017-04-09T03:58:00.076Z,0
2017-04-09T03:58:40.590Z,0
2017-04-09T03:59:21.112Z,0
2017-04-09T04:00:01.579Z,0
2017-04-09T04:00:42.089Z,0
2017-04-09T04:01:22.612Z,0
2017-04-09T04:02:03.101Z,0
2017-04-09T04:02:43.602Z,0
2017-04-09T04:03:24.113Z,0
2017-04-09T04:04:04.620Z,0
2017-04-09T04:04:45.129Z,0
2017-04-09T04:05:25.698Z,0
2017-04-09T04:06:06.203Z,0
2017-04-09T04:06:46.722Z,0
2017-04-09T04:07:27.238Z,0
2017-04-09T04:08:07.705Z,0
2017-04-09T04:08:48.181Z,0
2017-04-09T04:09:28.663Z,0
2017-04-09T04:10:09.168Z,0
2017-04-09T04:10:49.662Z,0
2017-04-09T04:11:30.153Z,0
2017-04-09T04:12:10.668Z,0
2017-04-09T04:12:51.182Z,0
2017-04-09T04:13:31.716Z,0
2017-04-09T04:14:12.224Z,0
2017-04-09T04:14:52.743Z,0
2017-04-09T04:15:33.251Z,0
2017-04-09T04:16:13.754Z,0
2017-04-09T04:16:54.263Z,0
2017-04-09T04:17:34.752Z,0
2017-04-09T04:18:15.286Z,0
2017-04-09T04:18:55.774Z,0
2017-04-09T04:19:36.236Z,0
2017-04-09T04:20:16.715Z,0
2017-04-09T04:20:57.225Z,0
2017-04-09T04:21:37.719Z,0
2017-04-09T04:22:18.253Z,0
2017-04-09T04:22:58.741Z,0
2017-04-09T04:23:39.235Z,0
2017-04-09T04:24:19.730Z,0
2017-04-09T04:25:00.266Z,0
2017-04-09T04:25:40.757Z,0
2017-04-09T04:26:21.222Z,0
2017-04-09T04:27:01.733Z,0
2017-04-09T04:27:42.260Z,0
2017-04-09T04:28:22.736Z,0
2017-04-09T04:29:03.240Z,0
2017-04-09T04:29:43.754Z,0
2017-04-09T04:30:24.254Z,0
2017-04-09T04:31:04.764Z,0
2017-04-09T04:31:45.279Z,0
2017-04-09T04:32:25.807Z,0
2017-04-09T04:33:06.292Z,0
2017-04-09T04:33:46.805Z,0
2017-04-09T04:34:27.312Z,0
2017-04-09T04:35:07.815Z,0
2017-04-09T04:35:48.320Z,0
2017-04-09T04:36:28.805Z,0
2017-04-09T04:37:09.350Z,0
2017-04-09T04:37:49.820Z,0
2017-04-09T04:38:30.348Z,0
2017-04-09T04:39:10.801Z,0
2017-04-09T04:39:51.315Z,0
2017-04-09T04:40:31.813Z,0
2017-04-09T04:41:12.274Z,0
2017-04-09T04:41:52.793Z,0
2017-04-09T04:42:33.279Z,0
2017-04-09T04:43:13.831Z,0
2017-04-09T04:43:54.291Z,0
2017-04-09T04:44:34.816Z,0
2017-04-09T04:45:15.319Z,0
2017-04-09T04:45:55.802Z,0
2017-04-09T04:46:36.308Z,0
2017-04-09T04:47:16.799Z,0
2017-04-09T04:47:57.300Z,0
2017-04-09T04:48:37.795Z,0
2017-04-09T04:49:18.302Z,0
2017-04-09T04:49:58.820Z,0
2017-04-09T04:50:39.283Z,0
2017-04-09T04:51:19.791Z,5
2017-04-09T04:52:00.306Z,5
2017-04-09T04:52:40.816Z,5
2017-04-09T04:53:21.345Z,5
2017-04-09T04:54:01.818Z,5
2017-04-09T04:54:42.349Z,5
2017-04-09T04:55:22.801Z,5
2017-04-09T04:56:03.303Z,5
2017-04-09T04:56:43.807Z,5
2017-04-09T04:57:24.304Z,5
2017-04-09T04:58:04.815Z,5
2017-04-09T04:58:45.325Z,5
2017-04-09T04:59:25.824Z,5
2017-04-09T05:00:06.333Z,5
2017-04-09T05:00:46.851Z,10
2017-04-09T05:01:27.356Z,10
2017-04-09T05:02:07.874Z,10
2017-04-09T05:02:48.409Z,10
2017-04-09T05:03:28.894Z,10
2017-04-09T05:04:09.373Z,10
2017-04-09T05:04:49.875Z,10
2017-04-09T05:05:30.379Z,10
2017-04-09T05:06:10.899Z,10
2017-04-09T05:06:51.389Z,10
2017-04-09T05:07:31.878Z,10
2017-04-09T05:08:12.358Z,10
2017-04-09T05:08:52.848Z,15
2017-04-09T05:09:33.382Z,15
2017-04-09T05:10:13.855Z,15
2017-04-09T05:10:54.390Z,15
2017-04-09T05:11:34.849Z,15
2017-04-09T05:12:15.364Z,15
2017-04-09T05:12:55.875Z,15
2017-04-09T05:13:36.376Z,15
2017-04-09T05:14:16.878Z,15
2017-04-09T05:14:57.381Z,15
2017-04-09T05:15:37.923Z,20
2017-04-09T05:16:18.397Z,20
2017-04-09T05:16:58.890Z,20
2017-04-09T05:17:39.365Z,20
2017-04-09T05:18:19.904Z,20
2017-04-09T05:19:00.437Z,20
2017-04-09T05:19:40.882Z,20
2017-04-09T05:20:21.339Z,20
2017-04-09T05:21:01.819Z,20
2017-04-09T05:21:42.343Z,20
2017-04-09T05:22:22.842Z,25
2017-04-09T05:23:03.358Z,25
2017-04-09T05:23:43.911Z,25
2017-04-09T05:24:24.393Z,25
2017-04-09T05:25:04.880Z,25
2017-04-09T05:25:45.373Z,25
2017-04-09T05:26:25.894Z,25
2017-04-09T05:27:06.368Z,25
2017-04-09T05:27:46.787Z,25
2017-04-09T05:28:27.302Z,30
2017-04-09T05:29:07.827Z,30
2017-04-09T05:29:48.345Z,30
2017-04-09T05:30:28.876Z,35
2017-04-09T05:31:09.352Z,35
2017-04-09T05:31:49.870Z,35
2017-04-09T05:32:30.348Z,35
2017-04-09T05:33:10.850Z,35
2017-04-09T05:33:51.369Z,35
2017-04-09T05:34:31.840Z,35
2017-04-09T05:35:12.347Z,35
2017-04-09T05:35:52.851Z,40
2017-04-09T05:36:33.389Z,40
2017-04-09T05:37:13.883Z,40
2017-04-09T05:37:54.373Z,40
2017-04-09T05:38:34.841Z,40
2017-04-09T05:39:15.349Z,40
2017-04-09T05:39:55.888Z,40
2017-04-09T05:40:36.398Z,40
2017-04-09T05:41:16.910Z,40
2017-04-09T05:41:57.384Z,40
2017-04-09T05:42:37.901Z,40
2017-04-09T05:43:18.423Z,40
2017-04-09T05:43:58.940Z,40
2017-04-09T05:44:39.434Z,40
2017-04-09T05:45:19.976Z,40
2017-04-09T05:46:00.432Z,40
2017-04-09T05:46:40.958Z,40
2017-04-09T05:47:21.474Z,40
2017-04-09T05:48:02.009Z,40
2017-04-09T05:48:42.470Z,40
2017-04-09T05:49:22.966Z,40
2017-04-09T05:50:03.480Z,45
2017-04-09T05:50:43.940Z,45
2017-04-09T05:51:24.420Z,45
2017-04-09T05:52:04.913Z,45
2017-04-09T05:52:45.413Z,45
2017-04-09T05:53:25.961Z,45
2017-04-09T05:54:06.395Z,45
2017-04-09T05:54:46.909Z,45
2017-04-09T05:55:27.476Z,45
2017-04-09T05:56:07.935Z,45
2017-04-09T05:56:48.415Z,45
2017-04-09T05:57:28.921Z,45
2017-04-09T05:58:09.368Z,45
2017-04-09T05:58:49.872Z,45
2017-04-09T05:59:30.427Z,45
2017-04-09T06:00:10.883Z,45
2017-04-09T06:00:51.373Z,50
2017-04-09T06:01:31.877Z,50
2017-04-09T06:02:12.391Z,50
2017-04-09T06:02:52.909Z,50
2017-04-09T06:03:33.388Z,50
2017-04-09T06:04:13.896Z,50
2017-04-09T06:04:54.410Z,50
2017-04-09T06:05:34.881Z,50
2017-04-09T06:06:15.428Z,50
2017-04-09T06:06:55.888Z,50
2017-04-09T06:07:36.427Z,50
2017-04-09T06:08:16.963Z,50
2017-04-09T06:08:57.430Z,50
2017-04-09T06:09:37.930Z,50
2017-04-09T06:10:18.443Z,50
2017-04-09T06:10:58.938Z,50
2017-04-09T06:11:39.457Z,50
2017-04-09T06:12:19.963Z,50
2017-04-09T06:13:00.467Z,55
2017-04-09T06:13:40.963Z,55
2017-04-09T06:14:21.445Z,55
2017-04-09T06:15:01.965Z,55
2017-04-09T06:15:42.451Z,55
2017-04-09T06:16:22.938Z,55
2017-04-09T06:17:03.483Z,55
2017-04-09T06:17:43.949Z,55
2017-04-09T06:18:24.410Z,55
2017-04-09T06:19:04.908Z,55
2017-04-09T06:19:45.503Z,55
2017-04-09T06:20:28.542Z,55
2017-04-09T06:21:09.008Z,55
2017-04-09T06:21:55.696Z,55
2017-04-09T06:23:00.604Z,55
2017-04-09T06:23:41.077Z,55
2017-04-09T06:24:21.605Z,55
2017-04-09T06:25:02.108Z,55
2017-04-09T06:25:42.590Z,55
2017-04-09T06:26:23.097Z,55
2017-04-09T06:27:03.591Z,60
2017-04-09T06:27:44.033Z,60
2017-04-09T06:28:24.580Z,60
2017-04-09T06:29:05.072Z,60
2017-04-09T06:29:45.647Z,60
2017-04-09T06:30:26.074Z,60
2017-04-09T06:31:06.589Z,60
2017-04-09T06:31:47.141Z,60
2017-04-09T06:32:27.580Z,60
2017-04-09T06:33:08.067Z,60
2017-04-09T06:33:48.593Z,60
2017-04-09T06:34:29.080Z,60
2017-04-09T06:35:09.564Z,60
2017-04-09T06:35:50.071Z,60
2017-04-09T06:36:30.561Z,60
2017-04-09T06:37:11.040Z,60
2017-04-09T06:37:51.529Z,60
2017-04-09T06:38:32.021Z,60
2017-04-09T06:39:12.495Z,60
2017-04-09T06:39:53.007Z,60
2017-04-09T06:40:33.476Z,60
2017-04-09T06:41:14.000Z,60
2017-04-09T06:41:54.510Z,60
2017-04-09T06:42:35.025Z,60
2017-04-09T06:43:15.512Z,60
2017-04-09T06:43:56.006Z,60
2017-04-09T06:44:36.512Z,60
2017-04-09T06:45:17.006Z,60
2017-04-09T06:45:57.499Z,60
2017-04-09T06:46:37.990Z,60
2017-04-09T06:47:18.526Z,60
2017-04-09T06:47:59.029Z,60
2017-04-09T06:48:39.532Z,60
2017-04-09T06:49:20.066Z,60
2017-04-09T06:50:00.586Z,60
2017-04-09T06:50:41.082Z,60
2017-04-09T06:51:21.572Z,60
2017-04-09T06:52:02.053Z,60
2017-04-09T06:52:42.583Z,60
2017-04-09T06:53:23.096Z,60
2017-04-09T06:54:03.626Z,60
2017-04-09T06:54:44.104Z,60
2017-04-09T06:55:24.615Z,60
2017-04-09T06:56:05.084Z,60
2017-04-09T06:56:45.618Z,65
2017-04-09T06:57:27.371Z,65
2017-04-09T06:58:07.866Z,60
2017-04-09T06:58:48.325Z,65
2017-04-09T06:59:28.827Z,65
2017-04-09T07:00:09.310Z,70
2017-04-09T07:00:49.823Z,75
2017-04-09T07:01:30.327Z,80
2017-04-09T07:02:10.817Z,85
2017-04-09T07:02:51.281Z,85
2017-04-09T07:03:31.804Z,85
2017-04-09T07:04:12.332Z,85
2017-04-09T07:04:52.785Z,85
2017-04-09T07:05:33.300Z,85
2017-04-09T07:06:13.777Z,85
2017-04-09T07:06:54.298Z,85
2017-04-09T07:07:34.787Z,85
2017-04-09T07:08:15.229Z,85
2017-04-09T07:08:55.717Z,85
2017-04-09T07:09:36.188Z,90
2017-04-09T07:10:16.708Z,90
2017-04-09T07:10:57.201Z,90
2017-04-09T07:11:37.856Z,90
2017-04-09T07:12:18.758Z,90
2017-04-09T07:12:59.258Z,90
2017-04-09T07:13:39.798Z,90
2017-04-09T07:14:22.226Z,90
2017-04-09T07:15:01.626Z,90
2017-04-09T07:15:42.201Z,90
2017-04-09T07:16:22.672Z,90
2017-04-09T07:19:49.018Z,90
2017-04-09T07:20:30.752Z,90
2017-04-09T07:21:10.565Z,90
2017-04-09T07:21:51.043Z,90
2017-04-09T07:22:31.538Z,90
2017-04-09T07:23:12.019Z,90
2017-04-09T07:23:52.545Z,90
2017-04-09T07:24:33.015Z,90
2017-04-09T07:25:13.554Z,90
2017-04-09T07:25:54.010Z,90
2017-04-09T07:26:34.504Z,90
2017-04-09T07:27:15.009Z,90
2017-04-09T07:27:55.514Z,90
2017-04-09T07:28:36.159Z,90
2017-04-09T07:29:16.601Z,90
2017-04-09T07:29:57.106Z,90
2017-04-09T07:30:41.795Z,85
2017-04-09T07:31:21.861Z,90
2017-04-09T07:32:02.467Z,85
2017-04-09T07:32:42.887Z,85
2017-04-09T07:33:23.342Z,85
2017-04-09T07:34:03.866Z,85
2017-04-09T07:34:44.418Z,85
2017-04-09T07:35:24.833Z,85
2017-04-09T07:36:05.331Z,85
2017-04-09T07:36:45.892Z,85
2017-04-09T07:37:26.377Z,85
2017-04-09T07:38:06.862Z,85
2017-04-09T07:38:47.369Z,85
2017-04-09T07:39:27.914Z,85
2017-04-09T07:40:08.381Z,85
2017-04-09T07:40:49.143Z,85
2017-04-09T07:41:29.646Z,85
2017-04-09T07:42:10.165Z,85
2017-04-09T07:42:50.694Z,85
2017-04-09T07:43:31.181Z,85
2017-04-09T07:44:11.679Z,85
2017-04-09T07:44:52.225Z,85
2017-04-09T07:45:32.792Z,80
2017-04-09T07:46:13.220Z,80
2017-04-09T07:46:53.728Z,80
2017-04-09T07:47:34.201Z,80
2017-04-09T07:48:14.717Z,80
2017-04-09T07:48:55.236Z,80
2017-04-09T07:49:35.730Z,80
2017-04-09T07:50:16.259Z,80
2017-04-09T07:50:56.933Z,75
2017-04-09T07:51:37.369Z,80
2017-04-09T07:52:17.865Z,70
2017-04-09T07:52:58.411Z,70
2017-04-09T07:53:38.949Z,70
2017-04-09T07:54:19.448Z,65
2017-04-09T07:54:59.980Z,65
2017-04-09T07:55:40.437Z,65
2017-04-09T07:56:20.943Z,65
2017-04-09T07:57:01.468Z,65
2017-04-09T07:57:44.456Z,65
2017-04-09T07:58:24.991Z,65
2017-04-09T07:59:05.475Z,65
2017-04-09T07:59:46.063Z,65
2017-04-09T08:00:26.601Z,65
2017-04-09T08:01:07.098Z,65
2017-04-09T08:01:47.560Z,65
2017-04-09T08:02:28.043Z,65
2017-04-09T08:03:08.560Z,65
2017-04-09T08:03:49.133Z,65
2017-04-09T08:04:29.579Z,65
2017-04-09T08:05:10.069Z,65
2017-04-09T08:05:50.995Z,65
2017-04-09T08:06:31.318Z,65
2017-04-09T08:07:11.850Z,65
2017-04-09T08:07:52.343Z,65
2017-04-09T08:08:32.860Z,65
2017-04-09T08:09:13.378Z,65
2017-04-09T08:09:53.887Z,65
2017-04-09T08:10:34.377Z,65
2017-04-09T08:11:14.874Z,60
2017-04-09T08:11:55.367Z,60
2017-04-09T08:12:35.895Z,60
2017-04-09T08:13:16.425Z,60
2017-04-09T08:13:57.099Z,60
2017-04-09T08:14:37.548Z,60
2017-04-09T08:15:18.040Z,60
2017-04-09T08:15:58.550Z,60
2017-04-09T08:16:39.100Z,60
2017-04-09T08:17:19.555Z,60
2017-04-09T08:18:00.063Z,60
2017-04-09T08:18:40.533Z,60
2017-04-09T08:19:21.073Z,60
2017-04-09T08:20:01.571Z,60
2017-04-09T08:20:42.077Z,60
2017-04-09T08:21:22.555Z,60
2017-04-09T08:22:03.082Z,60
2017-04-09T08:22:43.554Z,60
2017-04-09T08:23:24.073Z,60
2017-04-09T08:24:04.536Z,60
2017-04-09T08:24:45.027Z,60
2017-04-09T08:25:25.525Z,60
2017-04-09T08:26:06.021Z,60
2017-04-09T08:26:46.476Z,60
2017-04-09T08:27:27.001Z,60
2017-04-09T08:28:07.549Z,60
2017-04-09T08:28:48.033Z,60
2017-04-09T08:29:28.543Z,60
2017-04-09T08:30:09.027Z,60
2017-04-09T08:30:49.518Z,60
2017-04-09T08:31:30.180Z,60
2017-04-09T08:32:10.836Z,60
2017-04-09T08:32:51.302Z,60
2017-04-09T08:33:31.808Z,60
2017-04-09T08:34:12.341Z,60
2017-04-09T08:34:52.840Z,60
2017-04-09T08:35:33.309Z,60
2017-04-09T08:36:13.796Z,60
2017-04-09T08:36:54.284Z,60
2017-04-09T08:37:34.837Z,60
2017-04-09T08:38:15.314Z,60
2017-04-09T08:38:55.807Z,60
2017-04-09T08:39:36.257Z,60
2017-04-09T08:40:16.750Z,60
2017-04-09T08:40:57.250Z,60
2017-04-09T08:41:37.718Z,60
2017-04-09T08:42:18.203Z,60
2017-04-09T08:42:58.663Z,60
2017-04-09T08:43:39.197Z,60
2017-04-09T08:44:19.696Z,60
2017-04-09T08:45:00.207Z,60
2017-04-09T08:45:40.748Z,60
2017-04-09T08:46:24.428Z,60
2017-04-09T08:47:05.483Z,60
2017-04-09T08:47:45.579Z,60
2017-04-09T08:48:26.161Z,60
2017-04-09T08:49:06.700Z,60
2017-04-09T08:49:47.185Z,60
2017-04-09T08:50:27.745Z,60
2017-04-09T08:51:08.270Z,60
2017-04-09T08:51:48.884Z,60
2017-04-09T08:52:29.466Z,60
2017-04-09T08:53:10.185Z,60
2017-04-09T08:53:50.595Z,60
2017-04-09T08:54:31.101Z,60
2017-04-09T08:55:11.599Z,60
2017-04-09T08:55:52.119Z,60
2017-04-09T08:56:32.632Z,60
2017-04-09T08:57:13.042Z,65
2017-04-09T08:57:53.608Z,65
2017-04-09T08:58:34.104Z,60
2017-04-09T08:59:14.629Z,60
2017-04-09T08:59:56.037Z,60
2017-04-09T09:00:41.916Z,60
2017-04-09T09:01:22.390Z,60
2017-04-09T09:02:02.882Z,60
2017-04-09T09:02:44.441Z,60
2017-04-09T09:03:25.199Z,60
2017-04-09T09:04:05.953Z,60
2017-04-09T09:04:46.583Z,60
2017-04-09T09:05:27.010Z,60
2017-04-09T09:06:08.029Z,60
2017-04-09T09:06:48.380Z,60
2017-04-09T09:07:29.324Z,60
2017-04-09T09:08:10.276Z,60
2017-04-09T09:08:51.032Z,60
2017-04-09T09:09:31.496Z,60
2017-04-09T09:10:12.055Z,60
2017-04-09T09:10:52.494Z,60
2017-04-09T09:11:33.103Z,60
2017-04-09T09:12:13.596Z,60
2017-04-09T09:12:54.097Z,60
2017-04-09T09:13:34.598Z,60
2017-04-09T09:14:15.089Z,60
2017-04-09T09:14:55.599Z,55
2017-04-09T09:15:36.189Z,55
2017-04-09T09:16:16.628Z,55
2017-04-09T09:16:57.173Z,55
2017-04-09T09:17:37.703Z,55
2017-04-09T09:18:18.193Z,55
2017-04-09T09:18:58.755Z,55
2017-04-09T09:19:39.176Z,55
2017-04-09T09:20:19.638Z,55
2017-04-09T09:21:00.142Z,55
2017-04-09T09:21:40.653Z,55
2017-04-09T09:22:21.141Z,55
2017-04-09T09:23:01.632Z,55
2017-04-09T09:23:42.138Z,55
2017-04-09T09:24:23.253Z,55
2017-04-09T09:25:03.682Z,55
2017-04-09T09:25:44.325Z,55
2017-04-09T09:26:24.906Z,55
2017-04-09T09:27:05.417Z,55
2017-04-09T09:27:45.891Z,55
2017-04-09T09:28:26.655Z,55
2017-04-09T09:29:07.119Z,55
2017-04-09T09:29:47.648Z,55
2017-04-09T09:30:28.164Z,55
2017-04-09T09:31:08.675Z,55
2017-04-09T09:31:49.207Z,55
2017-04-09T09:32:29.597Z,55
2017-04-09T09:33:10.122Z,55
2017-04-09T09:33:50.603Z,55
2017-04-09T09:34:31.203Z,55
2017-04-09T09:35:12.552Z,55
2017-04-09T09:35:53.454Z,55
2017-04-09T09:36:33.984Z,55
2017-04-09T09:37:14.483Z,55
2017-04-09T09:37:54.998Z,55
2017-04-09T09:38:35.551Z,55
2017-04-09T09:39:16.047Z,55
2017-04-09T09:39:56.542Z,55
2017-04-09T09:40:37.048Z,55
2017-04-09T09:41:17.551Z,50
2017-04-09T09:41:58.073Z,50
2017-04-09T09:42:38.535Z,50
2017-04-09T09:43:19.792Z,50
2017-04-09T09:43:59.647Z,50
2017-04-09T09:44:40.176Z,50
2017-04-09T09:45:20.639Z,50
2017-04-09T09:46:01.133Z,50
2017-04-09T09:46:41.646Z,50
2017-04-09T09:47:22.090Z,50
2017-04-09T09:48:02.624Z,50
2017-04-09T09:48:43.164Z,50
2017-04-09T09:49:23.642Z,50
2017-04-09T09:50:04.151Z,50
2017-04-09T09:50:44.642Z,50
2017-04-09T09:51:25.155Z,50
2017-04-09T09:52:05.647Z,50